sensor_id;sensor_type;location;lat;lon;timestamp;P1;durP1;ratioP1;P2;durP2;ratioP2
32946;SDS011;54465;51.230;22.504;2023-12-20T00:01:55;14.68;;;8.40;;
32946;SDS011;54465;51.230;22.504;2023-12-20T00:06:55;16.92;;;8.63;;
32946;SDS011;54465;51.230;22.504;2023-12-20T00:11:56;14.00;;;8.82;;
32946;SDS011;54465;51.230;22.504;2023-12-20T00:16:57;15.25;;;8.85;;
32946;SDS011;54465;51.230;22.504;2023-12-20T00:21:57;14.50;;;8.73;;
32946;SDS011;54465;51.230;22.504;2023-12-20T00:26:59;14.75;;;9.10;;
32946;SDS011;54465;51.230;22.504;2023-12-20T00:32:00;13.82;;;8.30;;
32946;SDS011;54465;51.230;22.504;2023-12-20T00:37:00;12.50;;;7.80;;
32946;SDS011;54465;51.230;22.504;2023-12-20T00:42:01;14.73;;;8.75;;
32946;SDS011;54465;51.230;22.504;2023-12-20T00:47:02;13.68;;;8.30;;
32946;SDS011;54465;51.230;22.504;2023-12-20T00:52:03;13.32;;;8.23;;
32946;SDS011;54465;51.230;22.504;2023-12-20T00:57:03;13.73;;;7.93;;
32946;SDS011;54465;51.230;22.504;2023-12-20T01:02:04;15.07;;;8.23;;
32946;SDS011;54465;51.230;22.504;2023-12-20T01:07:05;14.00;;;8.13;;
32946;SDS011;54465;51.230;22.504;2023-12-20T01:12:05;13.88;;;7.85;;
32946;SDS011;54465;51.230;22.504;2023-12-20T01:17:06;14.25;;;8.05;;
32946;SDS011;54465;51.230;22.504;2023-12-20T01:22:06;13.85;;;7.57;;
32946;SDS011;54465;51.230;22.504;2023-12-20T01:27:07;12.88;;;8.73;;
32946;SDS011;54465;51.230;22.504;2023-12-20T01:32:08;11.00;;;7.25;;
32946;SDS011;54465;51.230;22.504;2023-12-20T01:37:09;13.25;;;7.70;;
32946;SDS011;54465;51.230;22.504;2023-12-20T01:42:09;13.27;;;8.07;;
32946;SDS011;54465;51.230;22.504;2023-12-20T01:47:10;13.00;;;7.72;;
32946;SDS011;54465;51.230;22.504;2023-12-20T01:52:11;13.70;;;8.55;;
32946;SDS011;54465;51.230;22.504;2023-12-20T01:57:11;13.13;;;8.20;;
32946;SDS011;54465;51.230;22.504;2023-12-20T02:02:12;12.38;;;8.18;;
32946;SDS011;54465;51.230;22.504;2023-12-20T02:07:12;14.48;;;8.20;;
32946;SDS011;54465;51.230;22.504;2023-12-20T02:12:13;12.88;;;8.23;;
32946;SDS011;54465;51.230;22.504;2023-12-20T02:17:14;11.77;;;7.13;;
32946;SDS011;54465;51.230;22.504;2023-12-20T02:22:15;13.73;;;8.05;;
32946;SDS011;54465;51.230;22.504;2023-12-20T02:27:16;11.73;;;7.60;;
32946;SDS011;54465;51.230;22.504;2023-12-20T02:32:18;14.68;;;8.15;;
32946;SDS011;54465;51.230;22.504;2023-12-20T02:37:19;14.27;;;8.48;;
32946;SDS011;54465;51.230;22.504;2023-12-20T02:42:20;12.90;;;7.82;;
32946;SDS011;54465;51.230;22.504;2023-12-20T02:47:20;12.88;;;8.18;;
32946;SDS011;54465;51.230;22.504;2023-12-20T02:52:21;14.88;;;7.90;;
32946;SDS011;54465;51.230;22.504;2023-12-20T02:57:23;13.88;;;8.65;;
32946;SDS011;54465;51.230;22.504;2023-12-20T03:02:23;11.60;;;7.97;;
32946;SDS011;54465;51.230;22.504;2023-12-20T03:07:24;14.85;;;8.90;;
32946;SDS011;54465;51.230;22.504;2023-12-20T03:12:24;12.20;;;7.63;;
32946;SDS011;54465;51.230;22.504;2023-12-20T03:17:25;14.32;;;7.65;;
32946;SDS011;54465;51.230;22.504;2023-12-20T03:22:25;14.90;;;8.13;;
32946;SDS011;54465;51.230;22.504;2023-12-20T03:27:26;13.32;;;8.48;;
32946;SDS011;54465;51.230;22.504;2023-12-20T03:32:27;13.13;;;8.68;;
32946;SDS011;54465;51.230;22.504;2023-12-20T03:37:27;11.52;;;7.93;;
32946;SDS011;54465;51.230;22.504;2023-12-20T03:42:28;11.07;;;7.18;;
32946;SDS011;54465;51.230;22.504;2023-12-20T03:47:29;14.07;;;8.13;;
32946;SDS011;54465;51.230;22.504;2023-12-20T03:52:29;13.13;;;7.63;;
32946;SDS011;54465;51.230;22.504;2023-12-20T03:57:29;14.45;;;8.27;;
32946;SDS011;54465;51.230;22.504;2023-12-20T04:02:30;12.00;;;7.10;;
32946;SDS011;54465;51.230;22.504;2023-12-20T04:07:31;11.40;;;7.40;;
32946;SDS011;54465;51.230;22.504;2023-12-20T04:12:32;14.57;;;8.10;;
32946;SDS011;54465;51.230;22.504;2023-12-20T04:17:32;14.48;;;7.72;;
32946;SDS011;54465;51.230;22.504;2023-12-20T04:22:33;11.85;;;7.68;;
32946;SDS011;54465;51.230;22.504;2023-12-20T04:27:33;14.02;;;8.60;;
32946;SDS011;54465;51.230;22.504;2023-12-20T04:32:34;14.13;;;8.57;;
32946;SDS011;54465;51.230;22.504;2023-12-20T04:37:35;16.35;;;8.13;;
32946;SDS011;54465;51.230;22.504;2023-12-20T04:42:36;13.20;;;8.55;;
32946;SDS011;54465;51.230;22.504;2023-12-20T04:47:37;13.07;;;7.97;;
32946;SDS011;54465;51.230;22.504;2023-12-20T04:52:38;12.68;;;8.45;;
32946;SDS011;54465;51.230;22.504;2023-12-20T04:57:38;15.02;;;7.72;;
32946;SDS011;54465;51.230;22.504;2023-12-20T05:02:39;12.27;;;7.82;;
32946;SDS011;54465;51.230;22.504;2023-12-20T05:07:40;12.35;;;8.10;;
32946;SDS011;54465;51.230;22.504;2023-12-20T05:12:40;13.05;;;8.05;;
32946;SDS011;54465;51.230;22.504;2023-12-20T05:17:41;11.65;;;7.70;;
32946;SDS011;54465;51.230;22.504;2023-12-20T05:22:41;14.63;;;8.18;;
32946;SDS011;54465;51.230;22.504;2023-12-20T05:27:42;14.85;;;9.02;;
32946;SDS011;54465;51.230;22.504;2023-12-20T05:32:43;16.17;;;8.32;;
32946;SDS011;54465;51.230;22.504;2023-12-20T05:37:43;13.43;;;8.48;;
32946;SDS011;54465;51.230;22.504;2023-12-20T05:42:44;13.10;;;7.78;;
32946;SDS011;54465;51.230;22.504;2023-12-20T05:47:44;13.15;;;8.55;;
32946;SDS011;54465;51.230;22.504;2023-12-20T05:52:45;14.38;;;8.38;;
32946;SDS011;54465;51.230;22.504;2023-12-20T05:57:45;11.90;;;7.30;;
32946;SDS011;54465;51.230;22.504;2023-12-20T06:02:47;14.90;;;9.38;;
32946;SDS011;54465;51.230;22.504;2023-12-20T06:07:47;12.77;;;8.23;;
32946;SDS011;54465;51.230;22.504;2023-12-20T06:12:48;15.80;;;9.45;;
32946;SDS011;54465;51.230;22.504;2023-12-20T06:17:50;14.43;;;8.68;;
32946;SDS011;54465;51.230;22.504;2023-12-20T06:22:54;12.45;;;8.23;;
32946;SDS011;54465;51.230;22.504;2023-12-20T06:27:54;19.73;;;11.75;;
32946;SDS011;54465;51.230;22.504;2023-12-20T06:32:55;16.70;;;9.25;;
32946;SDS011;54465;51.230;22.504;2023-12-20T06:37:57;14.07;;;9.23;;
32946;SDS011;54465;51.230;22.504;2023-12-20T06:42:58;12.70;;;8.98;;
32946;SDS011;54465;51.230;22.504;2023-12-20T06:47:59;13.52;;;8.77;;
32946;SDS011;54465;51.230;22.504;2023-12-20T06:53:00;14.10;;;8.55;;
32946;SDS011;54465;51.230;22.504;2023-12-20T06:58:07;13.50;;;8.27;;
32946;SDS011;54465;51.230;22.504;2023-12-20T07:03:08;17.95;;;10.40;;
32946;SDS011;54465;51.230;22.504;2023-12-20T07:08:09;17.55;;;10.40;;
32946;SDS011;54465;51.230;22.504;2023-12-20T07:13:11;18.33;;;10.77;;
32946;SDS011;54465;51.230;22.504;2023-12-20T07:18:12;19.20;;;9.52;;
32946;SDS011;54465;51.230;22.504;2023-12-20T07:23:13;24.35;;;12.35;;
32946;SDS011;54465;51.230;22.504;2023-12-20T07:28:13;20.17;;;11.77;;
32946;SDS011;54465;51.230;22.504;2023-12-20T07:33:14;20.30;;;13.05;;
32946;SDS011;54465;51.230;22.504;2023-12-20T07:38:15;16.80;;;9.38;;
32946;SDS011;54465;51.230;22.504;2023-12-20T07:43:15;15.38;;;9.38;;
32946;SDS011;54465;51.230;22.504;2023-12-20T07:48:16;13.90;;;8.95;;
32946;SDS011;54465;51.230;22.504;2023-12-20T07:53:17;16.08;;;9.05;;
32946;SDS011;54465;51.230;22.504;2023-12-20T07:58:17;16.33;;;10.02;;
32946;SDS011;54465;51.230;22.504;2023-12-20T08:03:18;20.13;;;11.23;;
32946;SDS011;54465;51.230;22.504;2023-12-20T08:08:18;14.23;;;9.35;;
32946;SDS011;54465;51.230;22.504;2023-12-20T08:13:19;14.98;;;9.70;;
32946;SDS011;54465;51.230;22.504;2023-12-20T08:18:20;15.88;;;9.00;;
32946;SDS011;54465;51.230;22.504;2023-12-20T08:23:20;15.02;;;10.00;;
32946;SDS011;54465;51.230;22.504;2023-12-20T08:28:23;12.98;;;8.65;;
32946;SDS011;54465;51.230;22.504;2023-12-20T08:33:25;11.88;;;8.68;;
32946;SDS011;54465;51.230;22.504;2023-12-20T08:38:26;13.95;;;8.35;;
32946;SDS011;54465;51.230;22.504;2023-12-20T08:43:26;13.60;;;8.68;;
32946;SDS011;54465;51.230;22.504;2023-12-20T08:48:27;12.45;;;8.15;;
32946;SDS011;54465;51.230;22.504;2023-12-20T08:53:28;15.73;;;9.98;;
32946;SDS011;54465;51.230;22.504;2023-12-20T08:58:29;14.52;;;8.05;;
32946;SDS011;54465;51.230;22.504;2023-12-20T09:03:29;13.15;;;7.63;;
32946;SDS011;54465;51.230;22.504;2023-12-20T09:08:30;13.20;;;8.02;;
32946;SDS011;54465;51.230;22.504;2023-12-20T09:13:31;14.43;;;8.25;;
32946;SDS011;54465;51.230;22.504;2023-12-20T09:18:32;12.77;;;8.70;;
32946;SDS011;54465;51.230;22.504;2023-12-20T09:23:32;14.20;;;7.88;;
32946;SDS011;54465;51.230;22.504;2023-12-20T09:28:33;12.30;;;7.97;;
32946;SDS011;54465;51.230;22.504;2023-12-20T09:33:37;10.10;;;6.97;;
32946;SDS011;54465;51.230;22.504;2023-12-20T09:38:38;13.27;;;8.10;;
32946;SDS011;54465;51.230;22.504;2023-12-20T09:43:39;12.77;;;8.13;;
32946;SDS011;54465;51.230;22.504;2023-12-20T09:48:40;13.50;;;8.20;;
32946;SDS011;54465;51.230;22.504;2023-12-20T09:53:41;14.48;;;9.05;;
32946;SDS011;54465;51.230;22.504;2023-12-20T09:58:43;12.40;;;8.55;;
32946;SDS011;54465;51.230;22.504;2023-12-20T10:03:43;13.32;;;8.32;;
32946;SDS011;54465;51.230;22.504;2023-12-20T10:08:44;15.85;;;9.38;;
32946;SDS011;54465;51.230;22.504;2023-12-20T10:13:45;14.20;;;8.05;;
32946;SDS011;54465;51.230;22.504;2023-12-20T10:18:48;10.38;;;7.03;;
32946;SDS011;54465;51.230;22.504;2023-12-20T10:23:48;11.80;;;6.05;;
32946;SDS011;54465;51.230;22.504;2023-12-20T10:29:01;9.90;;;6.80;;
32946;SDS011;54465;51.230;22.504;2023-12-20T10:34:04;8.68;;;5.30;;
32946;SDS011;54465;51.230;22.504;2023-12-20T10:39:05;9.73;;;5.10;;
32946;SDS011;54465;51.230;22.504;2023-12-20T10:44:07;6.05;;;4.15;;
32946;SDS011;54465;51.230;22.504;2023-12-20T10:49:09;3.00;;;2.13;;
32946;SDS011;54465;51.230;22.504;2023-12-20T10:54:10;4.00;;;2.33;;
32946;SDS011;54465;51.230;22.504;2023-12-20T10:59:11;5.95;;;3.10;;
32946;SDS011;54465;51.230;22.504;2023-12-20T11:04:15;3.15;;;2.35;;
32946;SDS011;54465;51.230;22.504;2023-12-20T11:09:24;4.55;;;2.83;;
32946;SDS011;54465;51.230;22.504;2023-12-20T11:14:27;5.75;;;3.22;;
32946;SDS011;54465;51.230;22.504;2023-12-20T11:19:32;5.35;;;3.38;;
32946;SDS011;54465;51.230;22.504;2023-12-20T11:24:32;5.70;;;3.30;;
32946;SDS011;54465;51.230;22.504;2023-12-20T11:29:34;5.75;;;3.17;;
32946;SDS011;54465;51.230;22.504;2023-12-20T11:34:37;5.10;;;3.50;;
32946;SDS011;54465;51.230;22.504;2023-12-20T11:39:37;5.45;;;2.97;;
32946;SDS011;54465;51.230;22.504;2023-12-20T11:44:38;3.75;;;2.58;;
32946;SDS011;54465;51.230;22.504;2023-12-20T11:49:38;6.30;;;3.35;;
32946;SDS011;54465;51.230;22.504;2023-12-20T11:54:39;7.20;;;4.72;;
32946;SDS011;54465;51.230;22.504;2023-12-20T11:59:39;9.45;;;5.07;;
32946;SDS011;54465;51.230;22.504;2023-12-20T12:04:43;9.20;;;4.65;;
32946;SDS011;54465;51.230;22.504;2023-12-20T12:09:43;6.38;;;3.15;;
32946;SDS011;54465;51.230;22.504;2023-12-20T12:14:44;2.75;;;1.75;;
32946;SDS011;54465;51.230;22.504;2023-12-20T12:19:45;1.90;;;1.50;;
32946;SDS011;54465;51.230;22.504;2023-12-20T12:24:46;1.15;;;0.77;;
32946;SDS011;54465;51.230;22.504;2023-12-20T12:30:03;1.98;;;1.30;;
32946;SDS011;54465;51.230;22.504;2023-12-20T12:35:06;1.88;;;1.15;;
32946;SDS011;54465;51.230;22.504;2023-12-20T12:40:12;2.15;;;1.08;;
32946;SDS011;54465;51.230;22.504;2023-12-20T12:45:14;2.17;;;1.08;;
32946;SDS011;54465;51.230;22.504;2023-12-20T12:50:15;2.35;;;1.17;;
32946;SDS011;54465;51.230;22.504;2023-12-20T12:55:17;2.85;;;1.70;;
32946;SDS011;54465;51.230;22.504;2023-12-20T13:00:17;3.40;;;2.08;;
32946;SDS011;54465;51.230;22.504;2023-12-20T13:05:19;3.83;;;2.05;;
32946;SDS011;54465;51.230;22.504;2023-12-20T13:10:20;3.47;;;1.90;;
32946;SDS011;54465;51.230;22.504;2023-12-20T13:15:20;4.13;;;2.05;;
32946;SDS011;54465;51.230;22.504;2023-12-20T13:20:21;3.53;;;1.38;;
32946;SDS011;54465;51.230;22.504;2023-12-20T13:25:22;2.65;;;1.10;;
32946;SDS011;54465;51.230;22.504;2023-12-20T13:30:22;2.40;;;1.40;;
32946;SDS011;54465;51.230;22.504;2023-12-20T13:35:25;2.92;;;1.50;;
32946;SDS011;54465;51.230;22.504;2023-12-20T13:40:25;3.50;;;2.08;;
32946;SDS011;54465;51.230;22.504;2023-12-20T13:45:26;2.22;;;1.45;;
32946;SDS011;54465;51.230;22.504;2023-12-20T13:50:26;2.25;;;1.40;;
32946;SDS011;54465;51.230;22.504;2023-12-20T13:55:27;3.53;;;1.45;;
32946;SDS011;54465;51.230;22.504;2023-12-20T14:00:28;3.85;;;1.50;;
32946;SDS011;54465;51.230;22.504;2023-12-20T14:05:28;4.13;;;1.85;;
32946;SDS011;54465;51.230;22.504;2023-12-20T14:10:29;3.33;;;1.73;;
32946;SDS011;54465;51.230;22.504;2023-12-20T14:15:30;3.42;;;1.55;;
32946;SDS011;54465;51.230;22.504;2023-12-20T14:20:36;2.95;;;1.42;;
32946;SDS011;54465;51.230;22.504;2023-12-20T14:25:36;5.78;;;2.47;;
32946;SDS011;54465;51.230;22.504;2023-12-20T14:30:37;5.63;;;2.20;;
32946;SDS011;54465;51.230;22.504;2023-12-20T14:35:39;4.93;;;2.33;;
32946;SDS011;54465;51.230;22.504;2023-12-20T14:40:41;3.00;;;1.88;;
32946;SDS011;54465;51.230;22.504;2023-12-20T14:45:41;6.22;;;3.08;;
32946;SDS011;54465;51.230;22.504;2023-12-20T14:50:42;5.90;;;3.03;;
32946;SDS011;54465;51.230;22.504;2023-12-20T14:55:43;5.55;;;2.95;;
32946;SDS011;54465;51.230;22.504;2023-12-20T15:00:43;5.75;;;2.75;;
32946;SDS011;54465;51.230;22.504;2023-12-20T15:05:45;11.60;;;5.50;;
32946;SDS011;54465;51.230;22.504;2023-12-20T15:10:47;6.40;;;4.25;;
32946;SDS011;54465;51.230;22.504;2023-12-20T15:15:57;8.25;;;4.93;;
32946;SDS011;54465;51.230;22.504;2023-12-20T15:21:00;8.80;;;4.50;;
32946;SDS011;54465;51.230;22.504;2023-12-20T15:26:00;14.13;;;6.85;;
32946;SDS011;54465;51.230;22.504;2023-12-20T15:31:01;10.68;;;5.47;;
32946;SDS011;54465;51.230;22.504;2023-12-20T15:36:02;9.20;;;5.00;;
32946;SDS011;54465;51.230;22.504;2023-12-20T15:41:03;8.02;;;3.80;;
32946;SDS011;54465;51.230;22.504;2023-12-20T15:46:03;6.07;;;3.65;;
32946;SDS011;54465;51.230;22.504;2023-12-20T15:51:07;8.75;;;3.92;;
32946;SDS011;54465;51.230;22.504;2023-12-20T15:56:09;11.88;;;5.22;;
32946;SDS011;54465;51.230;22.504;2023-12-20T16:01:09;9.55;;;5.40;;
32946;SDS011;54465;51.230;22.504;2023-12-20T16:06:10;8.82;;;4.90;;
32946;SDS011;54465;51.230;22.504;2023-12-20T16:11:11;10.23;;;4.78;;
32946;SDS011;54465;51.230;22.504;2023-12-20T16:16:11;7.00;;;3.75;;
32946;SDS011;54465;51.230;22.504;2023-12-20T16:21:12;11.35;;;4.85;;
32946;SDS011;54465;51.230;22.504;2023-12-20T16:26:13;10.38;;;4.53;;
32946;SDS011;54465;51.230;22.504;2023-12-20T16:31:13;9.70;;;4.40;;
32946;SDS011;54465;51.230;22.504;2023-12-20T16:36:14;7.63;;;3.88;;
32946;SDS011;54465;51.230;22.504;2023-12-20T16:41:15;8.32;;;4.50;;
32946;SDS011;54465;51.230;22.504;2023-12-20T16:46:15;8.30;;;3.97;;
32946;SDS011;54465;51.230;22.504;2023-12-20T16:51:16;7.65;;;4.25;;
32946;SDS011;54465;51.230;22.504;2023-12-20T16:56:16;5.15;;;3.83;;
32946;SDS011;54465;51.230;22.504;2023-12-20T17:01:17;6.95;;;4.43;;
32946;SDS011;54465;51.230;22.504;2023-12-20T17:06:18;8.02;;;4.53;;
32946;SDS011;54465;51.230;22.504;2023-12-20T17:11:18;6.18;;;4.13;;
32946;SDS011;54465;51.230;22.504;2023-12-20T17:16:21;6.65;;;4.45;;
32946;SDS011;54465;51.230;22.504;2023-12-20T17:21:22;8.90;;;5.18;;
32946;SDS011;54465;51.230;22.504;2023-12-20T17:26:22;8.40;;;4.93;;
32946;SDS011;54465;51.230;22.504;2023-12-20T17:31:23;10.15;;;5.43;;
32946;SDS011;54465;51.230;22.504;2023-12-20T17:36:23;9.95;;;4.68;;
32946;SDS011;54465;51.230;22.504;2023-12-20T17:41:24;12.18;;;5.63;;
32946;SDS011;54465;51.230;22.504;2023-12-20T17:46:24;11.68;;;7.18;;
32946;SDS011;54465;51.230;22.504;2023-12-20T17:51:25;9.13;;;4.60;;
32946;SDS011;54465;51.230;22.504;2023-12-20T17:56:27;7.03;;;4.35;;
32946;SDS011;54465;51.230;22.504;2023-12-20T18:01:29;7.25;;;4.68;;
32946;SDS011;54465;51.230;22.504;2023-12-20T18:06:30;8.38;;;5.85;;
32946;SDS011;54465;51.230;22.504;2023-12-20T18:11:30;14.70;;;7.00;;
32946;SDS011;54465;51.230;22.504;2023-12-20T18:16:31;5.95;;;4.25;;
32946;SDS011;54465;51.230;22.504;2023-12-20T18:21:31;6.45;;;3.70;;
32946;SDS011;54465;51.230;22.504;2023-12-20T18:26:33;5.97;;;3.20;;
32946;SDS011;54465;51.230;22.504;2023-12-20T18:31:36;7.80;;;3.97;;
32946;SDS011;54465;51.230;22.504;2023-12-20T18:36:37;8.80;;;4.57;;
32946;SDS011;54465;51.230;22.504;2023-12-20T18:41:37;9.23;;;5.05;;
32946;SDS011;54465;51.230;22.504;2023-12-20T18:46:44;8.68;;;5.00;;
32946;SDS011;54465;51.230;22.504;2023-12-20T18:51:45;11.70;;;5.47;;
32946;SDS011;54465;51.230;22.504;2023-12-20T18:56:45;8.93;;;5.50;;
32946;SDS011;54465;51.230;22.504;2023-12-20T19:01:47;12.48;;;5.22;;
32946;SDS011;54465;51.230;22.504;2023-12-20T19:06:48;15.13;;;5.88;;
32946;SDS011;54465;51.230;22.504;2023-12-20T19:11:50;10.43;;;4.82;;
32946;SDS011;54465;51.230;22.504;2023-12-20T19:16:51;9.20;;;5.10;;
32946;SDS011;54465;51.230;22.504;2023-12-20T19:21:51;9.30;;;5.10;;
32946;SDS011;54465;51.230;22.504;2023-12-20T19:26:52;8.75;;;4.95;;
32946;SDS011;54465;51.230;22.504;2023-12-20T19:31:52;8.48;;;5.28;;
32946;SDS011;54465;51.230;22.504;2023-12-20T19:36:54;7.18;;;4.43;;
32946;SDS011;54465;51.230;22.504;2023-12-20T19:41:54;8.18;;;4.65;;
32946;SDS011;54465;51.230;22.504;2023-12-20T19:46:56;7.05;;;4.18;;
32946;SDS011;54465;51.230;22.504;2023-12-20T19:51:56;8.63;;;4.40;;
32946;SDS011;54465;51.230;22.504;2023-12-20T19:56:57;11.65;;;4.38;;
32946;SDS011;54465;51.230;22.504;2023-12-20T20:01:57;6.35;;;3.85;;
32946;SDS011;54465;51.230;22.504;2023-12-20T20:07:00;6.97;;;4.93;;
32946;SDS011;54465;51.230;22.504;2023-12-20T20:12:01;7.50;;;4.10;;
32946;SDS011;54465;51.230;22.504;2023-12-20T20:17:02;6.63;;;4.13;;
32946;SDS011;54465;51.230;22.504;2023-12-20T20:22:03;7.10;;;4.18;;
32946;SDS011;54465;51.230;22.504;2023-12-20T20:27:04;10.38;;;5.82;;
32946;SDS011;54465;51.230;22.504;2023-12-20T20:32:05;8.48;;;5.20;;
32946;SDS011;54465;51.230;22.504;2023-12-20T20:37:07;9.00;;;5.95;;
32946;SDS011;54465;51.230;22.504;2023-12-20T20:42:08;10.45;;;6.05;;
32946;SDS011;54465;51.230;22.504;2023-12-20T20:47:09;11.25;;;6.45;;
32946;SDS011;54465;51.230;22.504;2023-12-20T20:52:10;9.07;;;6.30;;
32946;SDS011;54465;51.230;22.504;2023-12-20T20:57:10;9.68;;;7.03;;
32946;SDS011;54465;51.230;22.504;2023-12-20T21:02:11;12.23;;;7.90;;
32946;SDS011;54465;51.230;22.504;2023-12-20T21:07:11;13.77;;;8.40;;
32946;SDS011;54465;51.230;22.504;2023-12-20T21:12:12;14.63;;;8.85;;
32946;SDS011;54465;51.230;22.504;2023-12-20T21:17:12;16.42;;;8.48;;
32946;SDS011;54465;51.230;22.504;2023-12-20T21:22:13;13.38;;;8.52;;
32946;SDS011;54465;51.230;22.504;2023-12-20T21:27:14;12.15;;;7.63;;
32946;SDS011;54465;51.230;22.504;2023-12-20T21:32:14;15.75;;;8.80;;
32946;SDS011;54465;51.230;22.504;2023-12-20T21:37:16;11.88;;;7.78;;
32946;SDS011;54465;51.230;22.504;2023-12-20T21:42:17;13.05;;;7.88;;
32946;SDS011;54465;51.230;22.504;2023-12-20T21:47:17;12.70;;;7.85;;
32946;SDS011;54465;51.230;22.504;2023-12-20T21:52:18;13.80;;;7.90;;
32946;SDS011;54465;51.230;22.504;2023-12-20T21:57:19;14.40;;;7.82;;
32946;SDS011;54465;51.230;22.504;2023-12-20T22:02:19;12.60;;;7.82;;
32946;SDS011;54465;51.230;22.504;2023-12-20T22:07:20;11.93;;;7.75;;
32946;SDS011;54465;51.230;22.504;2023-12-20T22:12:20;11.45;;;7.65;;
32946;SDS011;54465;51.230;22.504;2023-12-20T22:17:21;12.40;;;7.78;;
32946;SDS011;54465;51.230;22.504;2023-12-20T22:22:22;9.43;;;5.53;;
32946;SDS011;54465;51.230;22.504;2023-12-20T22:27:23;10.88;;;5.10;;
32946;SDS011;54465;51.230;22.504;2023-12-20T22:32:25;6.47;;;4.00;;
32946;SDS011;54465;51.230;22.504;2023-12-20T22:37:28;4.72;;;2.50;;
32946;SDS011;54465;51.230;22.504;2023-12-20T22:42:29;3.33;;;2.08;;
32946;SDS011;54465;51.230;22.504;2023-12-20T22:47:29;2.58;;;1.90;;
32946;SDS011;54465;51.230;22.504;2023-12-20T22:52:30;2.65;;;1.77;;
32946;SDS011;54465;51.230;22.504;2023-12-20T22:57:30;3.17;;;1.40;;
32946;SDS011;54465;51.230;22.504;2023-12-20T23:02:31;2.78;;;1.50;;
32946;SDS011;54465;51.230;22.504;2023-12-20T23:07:33;1.80;;;1.10;;
32946;SDS011;54465;51.230;22.504;2023-12-20T23:12:33;4.22;;;1.17;;
32946;SDS011;54465;51.230;22.504;2023-12-20T23:17:34;2.40;;;1.45;;
32946;SDS011;54465;51.230;22.504;2023-12-20T23:22:34;3.00;;;1.33;;
32946;SDS011;54465;51.230;22.504;2023-12-20T23:27:35;3.05;;;1.50;;
32946;SDS011;54465;51.230;22.504;2023-12-20T23:32:35;2.25;;;1.40;;
32946;SDS011;54465;51.230;22.504;2023-12-20T23:37:36;5.43;;;1.80;;
32946;SDS011;54465;51.230;22.504;2023-12-20T23:42:36;8.38;;;3.72;;
32946;SDS011;54465;51.230;22.504;2023-12-20T23:47:37;8.73;;;4.60;;
32946;SDS011;54465;51.230;22.504;2023-12-20T23:52:38;6.70;;;3.25;;
32946;SDS011;54465;51.230;22.504;2023-12-20T23:57:38;3.95;;;2.58;;
